Time;durP1;ratioP1;P1;durP2;ratioP2;P2;SDS_P1;SDS_P2;PMS_P1;PMS_P2;Temp;Humidity;BMP_temperature;BMP_pressure;BME280_temperature;BME280_humidity;BME280_pressure;Samples;Min_cycle;Max_cycle;Signal;HPM_P1;HPM_P2
2023/10/08 00:01:14;;;;;;;0.57;0.53;;;;;;;14.41;86.49;101333.19;5033260;28;20684;-75
2023/10/08 00:03:48;;;;;;;0.40;0.40;;;;;;;14.36;84.95;101350.84;5033659;28;20595;-75
2023/10/08 00:06:20;;;;;;;0.40;0.40;;;;;;;14.43;86.14;101362.63;5033468;28;20198;-75
2023/10/08 00:08:50;;;;;;;0.60;0.60;;;;;;;14.38;86.71;101379.31;5033566;28;20191;-74
2023/10/08 00:11:22;;;;;;;1.13;0.60;;;;;;;14.28;86.18;101392.06;5033477;28;20559;-74
2023/10/08 00:13:55;;;;;;;0.50;0.50;;;;;;;14.27;85.57;101401.16;5034046;28;20234;-74
2023/10/08 00:16:25;;;;;;;0.50;0.50;;;;;;;14.17;86.18;101385.19;5033636;28;20199;-75
2023/10/08 00:18:58;;;;;;;0.60;0.60;;;;;;;14.25;87.13;101378.94;5033360;28;20218;-74
2023/10/08 00:21:27;;;;;;;0.50;0.50;;;;;;;14.16;86.81;101371.88;5033284;28;20337;-75
2023/10/08 00:23:58;;;;;;;0.47;0.47;;;;;;;14.07;86.04;101376.44;5033499;28;20239;-74
2023/10/08 00:26:29;;;;;;;0.40;0.40;;;;;;;14.03;87.51;101385.00;5037166;28;20191;-75
2023/10/08 00:29:00;;;;;;;0.53;0.53;;;;;;;14.13;87.91;101386.50;5037116;28;20241;-74
2023/10/08 00:31:31;;;;;;;0.57;0.57;;;;;;;14.07;86.62;101395.28;5037585;28;20252;-75
2023/10/08 00:34:01;;;;;;;1.33;0.40;;;;;;;13.91;88.02;101406.00;5037473;28;20300;-75
2023/10/08 00:36:29;;;;;;;0.30;0.30;;;;;;;13.79;87.66;101409.19;5037434;28;20241;-75
2023/10/08 00:39:00;;;;;;;0.60;0.40;;;;;;;13.46;87.45;101422.50;5036938;28;20579;-74
2023/10/08 00:41:30;;;;;;;0.37;0.37;;;;;;;13.14;87.50;101422.38;5037112;28;20207;-74
2023/10/08 00:44:00;;;;;;;2.07;0.80;;;;;;;12.94;85.83;101428.97;5036767;28;20284;-74
2023/10/08 00:46:31;;;;;;;0.90;0.60;;;;;;;12.86;86.08;101439.66;5036890;28;20265;-74
2023/10/08 00:49:24;;;;;;;2.07;0.90;;;;;;;12.94;85.54;101453.16;5037040;28;20234;-75
2023/10/08 00:52:03;;;;;;;1.70;1.17;;;;;;;12.84;83.63;101468.53;5037302;28;20229;-74
2023/10/08 00:54:39;;;;;;;3.53;1.50;;;;;;;12.75;83.64;101472.16;5036857;28;20283;-74
2023/10/08 00:57:11;;;;;;;1.70;1.20;;;;;;;12.45;84.42;101489.53;5036989;28;20214;-74
2023/10/08 00:59:45;;;;;;;3.53;1.30;;;;;;;12.25;85.04;101494.22;5036624;28;20659;-73
2023/10/08 01:02:19;;;;;;;3.50;1.03;;;;;;;12.41;85.21;101513.16;5036739;28;20698;-74
2023/10/08 01:04:50;;;;;;;4.93;1.33;;;;;;;12.56;84.23;101508.13;5036937;28;20238;-74
2023/10/08 01:07:19;;;;;;;4.37;1.20;;;;;;;12.51;84.35;101505.88;5036754;28;20294;-74
2023/10/08 01:09:50;;;;;;;3.77;1.40;;;;;;;12.53;83.42;101509.28;5037170;28;20213;-74
2023/10/08 01:12:26;;;;;;;2.87;1.30;;;;;;;12.74;84.71;101510.78;5036395;28;20633;-74
2023/10/08 01:14:55;;;;;;;3.70;1.20;;;;;;;12.83;83.48;101515.22;5036647;28;20230;-74
2023/10/08 01:17:27;;;;;;;1.90;1.10;;;;;;;13.01;82.85;101521.41;5036406;28;20301;-74
2023/10/08 01:19:59;;;;;;;4.03;1.30;;;;;;;13.23;83.26;101531.66;5036613;28;20275;-74
2023/10/08 01:22:30;;;;;;;2.07;1.10;;;;;;;13.25;83.03;101536.91;5036474;28;20237;-74
2023/10/08 01:25:01;;;;;;;1.30;1.00;;;;;;;13.28;82.59;101533.88;5036180;28;20329;-74
2023/10/08 01:27:34;;;;;;;2.50;1.10;;;;;;;13.34;82.50;101544.84;5036477;28;20281;-74
2023/10/08 01:30:12;;;;;;;2.23;1.20;;;;;;;13.25;82.40;101555.72;5036479;28;20194;-74
2023/10/08 01:32:40;;;;;;;4.13;1.23;;;;;;;13.35;81.58;101549.25;5036244;28;20187;-74
2023/10/08 01:35:22;;;;;;;3.03;1.27;;;;;;;13.47;81.44;101542.56;5035688;28;20230;-74
2023/10/08 01:37:56;;;;;;;3.80;1.30;;;;;;;13.62;82.54;101545.53;5036800;28;20195;-74
2023/10/08 01:40:24;;;;;;;2.30;1.20;;;;;;;13.65;81.42;101551.44;5038572;28;20192;-73
2023/10/08 01:42:53;;;;;;;1.97;1.10;;;;;;;13.64;81.35;101557.81;5037994;28;20234;-73
2023/10/08 01:45:24;;;;;;;2.03;1.20;;;;;;;13.62;80.78;101565.19;5037751;28;20258;-74
2023/10/08 01:47:54;;;;;;;3.13;1.20;;;;;;;13.59;81.50;101551.22;5037666;28;20566;-73
2023/10/08 01:50:25;;;;;;;1.57;1.17;;;;;;;13.46;81.83;101551.63;5038020;28;20570;-74
2023/10/08 01:52:55;;;;;;;7.70;1.43;;;;;;;13.34;83.23;101552.94;5037962;28;20660;-74
2023/10/08 01:55:24;;;;;;;2.83;1.27;;;;;;;13.50;83.04;101557.53;5035722;28;20314;-74
2023/10/08 01:57:52;;;;;;;3.57;1.10;;;;;;;13.57;82.14;101570.22;5036170;28;20206;-74
2023/10/08 02:00:22;;;;;;;4.37;1.20;;;;;;;13.60;82.79;101539.44;5035801;28;20285;-74
2023/10/08 02:02:51;;;;;;;1.67;1.07;;;;;;;13.49;83.07;101551.31;5035588;28;20413;-74
2023/10/08 02:05:20;;;;;;;1.80;1.07;;;;;;;13.53;83.15;101547.31;5035522;28;20222;-75
2023/10/08 02:07:51;;;;;;;2.20;1.30;;;;;;;13.45;83.01;101555.34;5035589;28;20256;-75
2023/10/08 02:10:22;;;;;;;1.47;1.10;;;;;;;13.44;83.02;101547.44;5035501;28;20211;-74
2023/10/08 02:12:50;;;;;;;4.13;1.40;;;;;;;13.47;82.90;101553.34;5035496;28;20197;-73
2023/10/08 02:15:19;;;;;;;3.53;1.47;;;;;;;13.33;83.17;101545.00;5035225;28;20230;-73
2023/10/08 02:17:49;;;;;;;4.17;1.60;;;;;;;13.12;82.56;101559.66;5035144;28;20728;-74
2023/10/08 02:20:18;;;;;;;2.87;1.37;;;;;;;13.15;83.82;101569.28;5035117;28;20207;-75
2023/10/08 02:22:49;;;;;;;2.40;1.33;;;;;;;13.19;83.63;101579.53;5034892;28;20269;-75
2023/10/08 02:25:18;;;;;;;4.10;1.50;;;;;;;13.07;84.43;101575.38;5035163;28;20258;-74
2023/10/08 02:27:48;;;;;;;5.57;2.13;;;;;;;13.11;82.63;101560.69;5035214;28;20210;-74
2023/10/08 02:30:17;;;;;;;4.33;1.67;;;;;;;13.22;84.61;101567.63;5034937;28;20561;-74
2023/10/08 02:32:46;;;;;;;3.27;1.60;;;;;;;13.27;84.11;101564.47;5035149;28;20203;-74
2023/10/08 02:35:15;;;;;;;5.10;1.67;;;;;;;13.36;83.96;101563.50;5035016;28;20235;-74
2023/10/08 02:37:45;;;;;;;4.83;1.63;;;;;;;13.38;82.81;101548.91;5035055;28;20207;-74
2023/10/08 02:40:19;;;;;;;3.40;1.73;;;;;;;13.35;83.42;101559.16;5034970;28;20187;-74
2023/10/08 02:42:50;;;;;;;2.93;1.40;;;;;;;13.31;83.75;101557.78;5034896;28;20305;-74
2023/10/08 02:45:18;;;;;;;2.77;1.50;;;;;;;13.31;82.99;101547.00;5034795;28;20231;-74
2023/10/08 02:47:47;;;;;;;4.00;1.30;;;;;;;13.25;83.09;101543.13;5034523;28;20265;-75
2023/10/08 02:50:17;;;;;;;3.93;1.47;;;;;;;13.31;84.33;101538.94;5034783;28;20206;-75
2023/10/08 02:52:46;;;;;;;3.43;1.60;;;;;;;13.23;83.25;101538.88;5035811;28;20198;-74
2023/10/08 02:55:28;;;;;;;3.03;1.17;;;;;;;13.31;83.75;101536.25;5034582;28;20322;-74
2023/10/08 02:57:58;;;;;;;3.00;1.30;;;;;;;13.19;84.03;101549.09;5034637;28;20608;-74
2023/10/08 03:00:29;;;;;;;4.57;1.70;;;;;;;13.20;83.40;101554.34;5034275;28;20211;-74
2023/10/08 03:03:01;;;;;;;2.47;1.40;;;;;;;13.18;84.08;101568.97;5034180;28;20211;-74
2023/10/08 03:05:35;;;;;;;3.53;1.23;;;;;;;13.15;84.54;101585.41;5034169;28;20589;-75
2023/10/08 03:08:10;;;;;;;3.30;1.30;;;;;;;13.15;84.35;101574.66;5034217;28;20641;-74
2023/10/08 03:10:41;;;;;;;2.23;1.23;;;;;;;13.07;84.32;101582.59;5034071;28;20641;-75
2023/10/08 03:13:12;;;;;;;2.33;1.20;;;;;;;13.07;84.16;101566.47;5034445;28;20552;-75
2023/10/08 03:16:07;;;;;;;3.07;1.23;;;;;;;13.08;85.52;101554.72;5034294;28;20231;-74
2023/10/08 03:18:36;;;;;;;2.63;1.33;;;;;;;13.02;84.34;101561.56;5033965;28;20198;-75
2023/10/08 03:21:19;;;;;;;2.63;1.13;;;;;;;12.97;84.32;101566.56;5033950;28;20717;-75
2023/10/08 03:23:58;;;;;;;2.90;1.60;;;;;;;13.05;84.86;101580.06;5033773;28;20265;-75
2023/10/08 03:26:35;;;;;;;3.70;1.27;;;;;;;13.07;84.56;101582.59;5034082;28;20210;-75
2023/10/08 03:29:08;;;;;;;4.50;1.50;;;;;;;13.10;84.93;101599.31;5034123;28;20201;-75
2023/10/08 03:31:50;;;;;;;4.67;1.50;;;;;;;13.08;84.81;101613.88;5033722;28;20649;-75
2023/10/08 03:34:20;;;;;;;3.17;1.40;;;;;;;12.96;84.51;101618.63;5033925;28;20250;-74
2023/10/08 03:36:50;;;;;;;3.53;1.30;;;;;;;12.98;84.94;101627.38;5033589;28;20211;-74
2023/10/08 03:39:19;;;;;;;2.80;1.30;;;;;;;13.10;85.42;101625.34;5033951;28;20195;-74
2023/10/08 03:42:05;;;;;;;5.10;1.50;;;;;;;13.08;84.76;101622.75;5033584;28;20548;-74
2023/10/08 03:44:37;;;;;;;2.70;1.20;;;;;;;12.99;84.87;101609.41;5033757;28;20261;-74
2023/10/08 03:47:10;;;;;;;2.33;1.37;;;;;;;12.97;84.49;101614.09;5033508;28;20741;-74
2023/10/08 03:49:45;;;;;;;2.47;1.47;;;;;;;12.90;85.32;101608.50;5033807;28;20187;-74
2023/10/08 03:52:14;;;;;;;3.03;1.57;;;;;;;12.99;85.84;101612.09;5033534;28;20194;-74
2023/10/08 03:54:48;;;;;;;5.23;1.47;;;;;;;13.00;85.63;101609.28;5033826;28;20226;-74
2023/10/08 03:57:25;;;;;;;3.80;1.30;;;;;;;12.90;85.23;101616.56;5033686;28;20567;-74
2023/10/08 03:59:58;;;;;;;2.83;1.30;;;;;;;12.91;85.90;101626.31;5033018;28;20190;-74
2023/10/08 04:02:39;;;;;;;2.20;1.23;;;;;;;12.87;85.90;101626.78;5033517;28;20195;-75
2023/10/08 04:05:19;;;;;;;3.33;1.50;;;;;;;12.81;86.82;101630.09;5033683;28;20230;-75
2023/10/08 04:11:07;;;;;;;4.40;1.20;;;;;;;12.74;88.11;101645.13;5033280;28;20294;-74
2023/10/08 04:13:30;;;;;;;3.53;1.40;;;;;;;12.72;86.57;101653.34;5033224;28;20628;-74
2023/10/08 04:16:04;;;;;;;7.17;1.60;;;;;;;12.71;87.36;101649.78;5033458;28;20206;-74
2023/10/08 04:18:40;;;;;;;2.90;1.60;;;;;;;12.67;86.73;101658.34;5033459;28;20269;-74
2023/10/08 04:21:12;;;;;;;4.87;1.70;;;;;;;12.67;86.95;101655.66;5033508;28;20261;-75
2023/10/08 04:23:44;;;;;;;4.57;1.80;;;;;;;12.66;86.66;101664.69;5033154;28;20237;-75
2023/10/08 04:26:12;;;;;;;2.80;1.47;;;;;;;12.66;86.46;101683.50;5033512;28;20191;-75
2023/10/08 04:28:41;;;;;;;4.23;1.67;;;;;;;12.65;88.19;101671.91;5033043;28;20681;-75
2023/10/08 04:31:24;;;;;;;2.27;1.33;;;;;;;12.64;88.23;101678.25;5033852;28;20687;-75
2023/10/08 04:33:54;;;;;;;2.83;1.40;;;;;;;12.73;87.33;101686.44;5036679;28;20222;-75
2023/10/08 04:36:22;;;;;;;4.20;1.30;;;;;;;12.68;87.35;101676.97;5036087;28;20209;-74
2023/10/08 04:38:54;;;;;;;5.13;2.00;;;;;;;12.62;86.70;101672.22;5035555;28;20239;-74
2023/10/08 04:41:28;;;;;;;6.00;1.50;;;;;;;12.58;87.40;101660.06;5036204;28;20195;-74
2023/10/08 04:43:56;;;;;;;3.97;1.83;;;;;;;12.65;88.00;101649.56;5035649;28;20234;-74
2023/10/08 04:46:46;;;;;;;5.17;1.83;;;;;;;12.58;86.59;101651.16;5034202;28;20265;-74
2023/10/08 04:49:26;;;;;;;4.07;1.20;;;;;;;12.61;86.97;101667.81;5033110;28;20274;-74
2023/10/08 04:51:57;;;;;;;2.13;1.50;;;;;;;12.54;86.76;101677.47;5033162;28;20195;-74
2023/10/08 04:54:29;;;;;;;4.50;1.53;;;;;;;12.63;87.25;101687.34;5033061;28;20231;-74
2023/10/08 04:56:59;;;;;;;3.80;1.50;;;;;;;12.57;87.29;101698.66;5032827;28;20653;-74
2023/10/08 04:59:33;;;;;;;5.23;1.60;;;;;;;12.54;87.11;101704.34;5033017;28;20617;-74
2023/10/08 05:02:20;;;;;;;3.77;1.67;;;;;;;12.54;87.94;101698.97;5033022;28;20217;-74
2023/10/08 05:10:44;;;;;;;2.90;1.90;;;;;;;12.58;88.12;101678.03;5033705;28;20641;-75
2023/10/08 05:13:16;;;;;;;2.93;1.53;;;;;;;12.60;87.44;101684.13;5036638;28;20600;-75
2023/10/08 05:16:02;;;;;;;2.73;1.50;;;;;;;12.59;87.56;101680.56;5036867;28;20298;-75
2023/10/08 05:19:06;;;;;;;6.20;1.70;;;;;;;12.63;87.92;101692.72;5036509;28;20269;-75
2023/10/08 05:21:40;;;;;;;2.63;1.70;;;;;;;12.59;87.29;101695.84;5036127;28;20213;-75
2023/10/08 05:24:08;;;;;;;4.03;1.70;;;;;;;12.59;88.01;101696.69;5035831;28;20607;-75
2023/10/08 05:26:45;;;;;;;2.83;1.70;;;;;;;12.64;88.43;101699.75;5036431;28;20211;-74
2023/10/08 05:34:56;;;;;;;5.40;2.17;;;;;;;12.54;88.41;101733.88;5035753;28;20227;-75
2023/10/08 05:37:37;;;;;;;4.20;1.77;;;;;;;12.48;88.12;101710.31;5036375;28;20282;-74
2023/10/08 05:40:21;;;;;;;4.93;1.70;;;;;;;12.56;88.29;101723.84;5035983;28;20607;-74
2023/10/08 05:43:00;;;;;;;3.53;1.67;;;;;;;12.56;87.96;101733.75;5035893;28;20625;-74
2023/10/08 05:45:33;;;;;;;3.80;1.60;;;;;;;12.53;89.05;101745.66;5036116;28;20223;-75
2023/10/08 05:48:15;;;;;;;3.57;1.97;;;;;;;12.47;89.08;101746.22;5036135;28;20199;-75
2023/10/08 05:51:12;;;;;;;4.03;2.17;;;;;;;12.48;89.80;101747.91;5035990;28;20210;-75
2023/10/08 05:53:43;;;;;;;4.83;1.90;;;;;;;12.42;89.08;101753.88;5035990;28;20226;-74
2023/10/08 05:56:28;;;;;;;4.03;1.90;;;;;;;12.41;89.82;101752.19;5035734;28;20633;-74
2023/10/08 06:01:41;;;;;;;4.10;1.80;;;;;;;12.50;89.23;101755.84;5035798;28;20217;-75
2023/10/08 06:04:31;;;;;;;2.93;1.73;;;;;;;12.50;88.63;101756.66;5035614;28;20314;-75
2023/10/08 06:07:12;;;;;;;4.43;1.90;;;;;;;12.47;89.48;101772.22;5035835;28;20282;-75
2023/10/08 06:09:50;;;;;;;4.60;1.80;;;;;;;12.41;89.96;101756.72;5035916;28;20282;-75
2023/10/08 06:12:29;;;;;;;4.87;2.20;;;;;;;12.32;89.87;101765.66;5035290;28;20241;-75
2023/10/08 06:15:08;;;;;;;4.83;1.93;;;;;;;12.31;90.22;101767.50;5035776;28;20227;-75
2023/10/08 06:20:26;;;;;;;4.80;1.90;;;;;;;12.33;89.67;101773.56;5035506;28;20202;-75
2023/10/08 06:23:03;;;;;;;4.40;1.87;;;;;;;12.36;90.70;101775.13;5034724;28;20247;-75
2023/10/08 06:25:31;;;;;;;7.57;2.10;;;;;;;12.24;91.13;101785.19;5034884;28;20305;-75
2023/10/08 06:28:02;;;;;;;4.17;1.80;;;;;;;12.27;90.96;101784.03;5035081;28;20214;-75
2023/10/08 06:30:34;;;;;;;4.27;2.27;;;;;;;12.26;91.18;101791.25;5035045;28;20555;-74
2023/10/08 06:33:04;;;;;;;4.27;1.77;;;;;;;12.33;90.54;101786.97;5035059;28;20682;-75
2023/10/08 06:35:34;;;;;;;4.83;2.03;;;;;;;12.35;91.63;101801.13;5035091;28;20262;-75
2023/10/08 06:38:08;;;;;;;6.90;2.27;;;;;;;12.38;90.95;101810.72;5035497;28;20217;-75
2023/10/08 06:40:41;;;;;;;6.33;2.27;;;;;;;12.33;91.07;101819.19;5035184;28;20195;-75
2023/10/08 06:43:16;;;;;;;6.87;2.50;;;;;;;12.28;92.13;101821.50;5035372;28;20201;-75
2023/10/08 06:45:47;;;;;;;4.53;2.30;;;;;;;12.24;90.89;101812.03;5035042;28;20311;-75
2023/10/08 06:48:20;;;;;;;5.27;2.20;;;;;;;12.24;91.95;101820.09;5034971;28;20629;-75
2023/10/08 06:50:50;;;;;;;5.37;2.63;;;;;;;12.29;92.53;101833.09;5035062;28;20234;-75
2023/10/08 06:53:21;;;;;;;8.27;2.67;;;;;;;12.32;91.96;101830.09;5034784;28;20278;-75
2023/10/08 06:55:56;;;;;;;7.10;2.23;;;;;;;12.32;92.26;101847.06;5034889;28;20278;-75
2023/10/08 06:58:25;;;;;;;9.40;2.50;;;;;;;12.38;92.11;101851.84;5034441;28;20556;-74
2023/10/08 07:00:55;;;;;;;3.53;2.37;;;;;;;12.27;92.57;101845.78;5034669;28;20207;-74
2023/10/08 07:03:24;;;;;;;5.53;2.27;;;;;;;12.32;92.38;101841.69;5035113;28;20203;-74
2023/10/08 07:05:57;;;;;;;5.57;2.50;;;;;;;12.31;92.73;101845.38;5034655;28;20312;-74
2023/10/08 07:08:31;;;;;;;6.07;2.80;;;;;;;12.33;92.23;101859.47;5034556;28;20679;-75
2023/10/08 07:11:06;;;;;;;7.77;2.33;;;;;;;12.37;91.98;101852.84;5034360;28;20692;-74
2023/10/08 07:13:37;;;;;;;4.47;2.30;;;;;;;12.39;92.53;101853.56;5034411;28;20281;-75
2023/10/08 07:16:10;;;;;;;8.17;2.53;;;;;;;12.43;92.72;101846.88;5034414;28;20187;-75
2023/10/08 07:18:41;;;;;;;7.70;2.33;;;;;;;12.43;91.50;101854.94;5034314;28;20261;-74
2023/10/08 07:21:12;;;;;;;4.60;2.53;;;;;;;12.43;91.53;101852.25;5034543;28;20195;-75
2023/10/08 07:23:56;;;;;;;8.07;2.53;;;;;;;12.46;92.06;101852.00;5036653;28;20723;-75
2023/10/08 07:26:26;;;;;;;5.97;2.40;;;;;;;12.41;92.00;101877.56;5037010;28;20210;-75
2023/10/08 07:28:55;;;;;;;6.67;2.37;;;;;;;12.47;91.97;101872.47;5038693;28;20596;-74
2023/10/08 07:31:28;;;;;;;5.03;2.10;;;;;;;12.47;91.02;101877.84;5041571;28;20207;-75
2023/10/08 07:34:15;;;;;;;4.27;2.07;;;;;;;12.52;91.44;101882.78;5037535;28;20227;-75
2023/10/08 07:36:44;;;;;;;8.87;2.30;;;;;;;12.54;90.53;101886.16;5036583;28;20339;-75
2023/10/08 07:39:25;;;;;;;6.67;2.30;;;;;;;12.51;90.98;101886.44;5033673;28;20683;-76
2023/10/08 07:41:55;;;;;;;3.60;1.93;;;;;;;12.49;90.65;101881.25;5033894;28;20222;-76
2023/10/08 07:44:24;;;;;;;5.00;2.30;;;;;;;12.54;91.69;101870.88;5033743;28;20231;-75
2023/10/08 07:46:54;;;;;;;3.00;1.80;;;;;;;12.57;90.84;101881.34;5033741;28;20213;-74
2023/10/08 07:49:25;;;;;;;5.70;2.27;;;;;;;12.61;90.81;101872.00;5033457;28;20598;-76
2023/10/08 07:51:53;;;;;;;4.53;2.40;;;;;;;12.65;90.78;101870.72;5034029;28;20333;-75
2023/10/08 07:54:27;;;;;;;8.40;2.00;;;;;;;12.67;89.64;101884.84;5033614;28;20227;-75
2023/10/08 07:57:08;;;;;;;7.47;2.37;;;;;;;12.70;90.31;101886.41;5033764;28;20199;-75
2023/10/08 07:59:38;;;;;;;3.47;1.70;;;;;;;12.71;90.00;101888.09;5033640;28;20191;-75
2023/10/08 08:02:09;;;;;;;4.60;2.10;;;;;;;12.75;90.82;101894.00;5033637;28;20676;-75
2023/10/08 08:04:39;;;;;;;5.03;2.00;;;;;;;12.75;89.86;101889.50;5033891;28;20239;-75
2023/10/08 08:07:15;;;;;;;4.30;1.77;;;;;;;12.78;89.96;101904.47;5033245;28;20459;-75
2023/10/08 08:09:50;;;;;;;6.27;2.50;;;;;;;12.83;88.91;101912.94;5033554;28;20195;-75
2023/10/08 08:12:21;;;;;;;5.10;1.90;;;;;;;12.79;88.60;101898.97;5033568;28;20278;-75
2023/10/08 08:14:50;;;;;;;7.23;2.10;;;;;;;12.79;88.40;101896.28;5033634;28;20226;-75
2023/10/08 08:17:19;;;;;;;6.77;2.27;;;;;;;12.88;88.48;101891.84;5033400;28;20213;-74
2023/10/08 08:19:49;;;;;;;8.33;2.10;;;;;;;12.86;87.20;101892.00;5033411;28;20234;-74
2023/10/08 08:22:21;;;;;;;5.90;2.03;;;;;;;12.87;86.30;101909.84;5033528;28;20218;-75
2023/10/08 08:24:56;;;;;;;3.93;1.93;;;;;;;12.91;86.87;101918.47;5032739;28;20650;-75
2023/10/08 08:27:31;;;;;;;2.93;1.67;;;;;;;12.89;86.42;101920.41;5034208;28;20265;-75
2023/10/08 08:30:09;;;;;;;3.73;1.60;;;;;;;13.00;86.04;101907.66;5033367;28;20208;-74
2023/10/08 08:32:40;;;;;;;5.67;1.53;;;;;;;13.12;85.07;101925.31;5033361;28;20240;-76
2023/10/08 08:35:10;;;;;;;4.03;1.73;;;;;;;13.17;84.25;101920.34;5033118;28;20309;-76
2023/10/08 08:37:39;;;;;;;10.17;2.10;;;;;;;13.25;84.78;101925.00;5032901;28;20632;-76
2023/10/08 08:40:17;;;;;;;6.67;2.10;;;;;;;13.32;84.84;101915.31;5033191;28;20211;-76
2023/10/08 08:42:47;;;;;;;6.33;1.80;;;;;;;13.41;82.71;101932.41;5033240;28;20198;-76
2023/10/08 08:45:21;;;;;;;5.13;1.57;;;;;;;13.44;81.64;101935.66;5034015;28;20237;-75
2023/10/08 08:47:49;;;;;;;4.50;1.87;;;;;;;13.43;80.99;101933.94;5037057;28;20286;-75
2023/10/08 08:50:19;;;;;;;6.90;2.00;;;;;;;13.57;80.80;101935.28;5036823;28;20691;-75
2023/10/08 08:52:48;;;;;;;6.87;1.80;;;;;;;13.61;75.25;101942.91;5037097;28;20211;-76
2023/10/08 08:55:18;;;;;;;6.77;1.57;;;;;;;13.73;77.37;101940.88;5036928;28;20223;-75
2023/10/08 08:57:49;;;;;;;4.93;1.70;;;;;;;13.71;77.27;101954.47;5036653;28;20742;-75
2023/10/08 09:00:20;;;;;;;3.87;1.43;;;;;;;13.61;76.05;101950.97;5036940;28;20214;-75
2023/10/08 09:02:49;;;;;;;7.43;1.97;;;;;;;13.61;76.82;101948.28;5037195;28;20195;-75
2023/10/08 09:05:25;;;;;;;5.30;1.80;;;;;;;13.71;77.27;101957.16;5036385;28;20231;-75
2023/10/08 09:07:58;;;;;;;8.17;1.77;;;;;;;13.82;76.91;101966.00;5036725;28;20227;-76
2023/10/08 09:10:29;;;;;;;5.67;1.87;;;;;;;13.89;72.14;101969.78;5036440;28;20638;-76
2023/10/08 09:12:59;;;;;;;4.13;1.60;;;;;;;13.95;68.55;101982.63;5036650;28;20238;-76
2023/10/08 09:15:29;;;;;;;7.87;2.17;;;;;;;13.99;70.61;101978.66;5036531;28;20227;-76
2023/10/08 09:18:00;;;;;;;4.53;1.90;;;;;;;14.05;70.41;101984.28;5036530;28;20207;-76
2023/10/08 09:20:31;;;;;;;6.10;1.97;;;;;;;14.05;66.20;101989.66;5036269;28;20206;-76
2023/10/08 09:23:21;;;;;;;5.87;1.60;;;;;;;14.15;67.63;101985.03;5036537;28;20192;-75
2023/10/08 09:25:59;;;;;;;6.10;1.70;;;;;;;14.24;69.08;101983.28;5036081;28;20297;-75
2023/10/08 09:28:28;;;;;;;5.73;1.60;;;;;;;14.30;65.93;101989.91;5036439;28;20253;-75
2023/10/08 09:30:59;;;;;;;7.13;1.67;;;;;;;14.38;66.40;101990.88;5036167;28;20715;-75
2023/10/08 09:33:30;;;;;;;3.13;1.30;;;;;;;14.37;65.34;101989.16;5036520;28;20639;-75
2023/10/08 09:36:02;;;;;;;6.70;1.67;;;;;;;14.54;68.13;102000.94;5035936;28;20689;-75
2023/10/08 09:38:33;;;;;;;5.03;1.33;;;;;;;14.60;66.64;101994.91;5036278;28;20286;-75
2023/10/08 09:41:04;;;;;;;5.03;1.50;;;;;;;14.67;66.93;101983.34;5036184;28;20198;-71
2023/10/08 09:43:34;;;;;;;11.13;8.17;;;;;;;14.82;67.88;101980.09;5035955;28;20202;-69
2023/10/08 09:46:10;;;;;;;5.73;1.60;;;;;;;14.93;69.39;101993.31;5035779;28;20238;-73
2023/10/08 09:48:43;;;;;;;4.23;1.50;;;;;;;15.02;67.67;101989.66;5035760;28;20565;-73
2023/10/08 09:51:14;;;;;;;9.93;1.80;;;;;;;15.06;66.46;101991.03;5035956;28;20191;-72
2023/10/08 09:53:53;;;;;;;3.87;1.80;;;;;;;15.13;65.57;101986.72;5035838;28;20222;-72
2023/10/08 09:56:25;;;;;;;5.80;1.70;;;;;;;15.08;62.52;101980.94;5035582;28;20195;-72
2023/10/08 09:58:54;;;;;;;6.50;2.07;;;;;;;15.03;64.11;101976.03;5035612;28;20198;-72
2023/10/08 10:01:23;;;;;;;12.50;11.33;;;;;;;15.15;65.09;101979.28;5035714;28;20237;-72
2023/10/08 10:03:52;;;;;;;20.50;18.80;;;;;;;15.17;63.21;101982.69;5035359;28;20596;-72
2023/10/08 10:06:22;;;;;;;10.80;6.93;;;;;;;15.07;62.03;101982.78;5035615;28;20313;-72
2023/10/08 10:08:50;;;;;;;6.10;3.53;;;;;;;15.05;62.03;101981.25;5035598;28;20242;-72
2023/10/08 10:11:19;;;;;;;8.60;2.40;;;;;;;15.16;58.17;101983.69;5035532;28;20207;-72
2023/10/08 10:14:00;;;;;;;2.37;1.80;;;;;;;15.29;62.91;101984.09;5035095;28;20661;-72
2023/10/08 10:16:29;;;;;;;6.83;2.07;;;;;;;15.14;58.44;101988.38;5035166;28;20548;-72
2023/10/08 10:18:59;;;;;;;5.73;3.07;;;;;;;15.33;58.33;101984.63;5035407;28;20210;-72
2023/10/08 10:21:32;;;;;;;5.77;4.93;;;;;;;15.42;63.13;101972.84;5035370;28;20211;-72
2023/10/08 10:24:05;;;;;;;8.07;4.13;;;;;;;15.37;61.75;101973.34;5035134;28;20241;-70
2023/10/08 10:26:40;;;;;;;7.10;2.37;;;;;;;15.50;61.31;101983.72;5035279;28;20222;-70
2023/10/08 10:29:26;;;;;;;2.97;2.00;;;;;;;15.63;62.56;101978.69;5035272;28;20197;-70
2023/10/08 10:31:56;;;;;;;4.73;1.53;;;;;;;15.52;57.24;101982.53;5035167;28;20195;-69
2023/10/08 10:34:27;;;;;;;9.97;5.43;;;;;;;15.70;57.83;101983.28;5034764;28;20276;-70
2023/10/08 10:37:02;;;;;;;7.20;4.10;;;;;;;15.87;60.78;102003.09;5035073;28;20246;-70
2023/10/08 10:39:34;;;;;;;6.07;2.07;;;;;;;16.00;60.92;102016.13;5034997;28;20673;-70
2023/10/08 10:42:06;;;;;;;5.87;1.83;;;;;;;15.95;57.26;102021.19;5034993;28;20195;-70
2023/10/08 10:44:38;;;;;;;4.33;1.63;;;;;;;16.08;57.61;102013.44;5034873;28;20233;-70
2023/10/08 10:49:55;;;;;;;7.47;2.07;;;;;;;16.37;59.07;101992.19;5034912;28;20281;-70
2023/10/08 10:52:31;;;;;;;9.23;2.23;;;;;;;16.23;58.08;102015.31;5034785;28;20197;-70
2023/10/08 10:55:20;;;;;;;6.87;2.03;;;;;;;16.27;58.78;102015.03;5034645;28;20245;-70
2023/10/08 10:58:03;;;;;;;9.37;1.73;;;;;;;16.20;55.73;102010.25;5034945;28;20196;-70
2023/10/08 11:00:47;;;;;;;5.33;1.90;;;;;;;15.95;56.64;101994.16;5034642;28;20195;-70
2023/10/08 11:03:23;;;;;;;3.03;1.40;;;;;;;15.91;58.16;102006.31;5034624;28;20191;-70
2023/10/08 11:05:59;;;;;;;6.73;2.17;;;;;;;15.90;60.40;102012.72;5034689;28;20290;-70
2023/10/08 11:08:34;;;;;;;6.57;1.70;;;;;;;15.82;60.78;101989.25;5034344;28;20240;-71
2023/10/08 11:11:07;;;;;;;7.33;1.97;;;;;;;15.85;59.78;101993.47;5034431;28;20286;-72
2023/10/08 11:13:39;;;;;;;3.80;2.03;;;;;;;15.95;60.99;102010.38;5034303;28;20194;-72
2023/10/08 11:16:13;;;;;;;6.50;2.10;;;;;;;15.98;57.85;101992.00;5034358;28;20269;-72
2023/10/08 11:18:50;;;;;;;6.67;2.10;;;;;;;16.07;57.58;102003.63;5034337;28;20190;-72
2023/10/08 11:21:23;;;;;;;7.17;2.03;;;;;;;16.09;55.50;101988.13;5034251;28;20274;-72
2023/10/08 11:23:55;;;;;;;5.77;2.17;;;;;;;16.20;53.60;101998.59;5033803;28;20724;-72
2023/10/08 11:26:32;;;;;;;5.57;2.00;;;;;;;16.40;59.12;101994.59;5033760;28;20709;-72
2023/10/08 11:29:03;;;;;;;2.90;1.70;;;;;;;16.40;57.06;101980.22;5034106;28;20256;-72
2023/10/08 11:31:34;;;;;;;6.87;1.97;;;;;;;16.25;55.40;101963.84;5034031;28;20277;-72
2023/10/08 11:34:08;;;;;;;4.27;1.83;;;;;;;16.28;57.67;101984.25;5033930;28;20242;-72
2023/10/08 11:39:30;;;;;;;6.80;2.40;;;;;;;16.32;56.94;102016.19;5031387;28;20297;-72
2023/10/08 11:42:02;;;;;;;6.60;1.80;;;;;;;16.42;56.78;102022.28;5033857;28;20212;-72
2023/10/08 11:44:35;;;;;;;4.13;1.70;;;;;;;16.55;56.32;102022.66;5033766;28;20234;-72
2023/10/08 11:47:13;;;;;;;6.60;2.07;;;;;;;16.39;52.77;101994.75;5033742;28;20621;-72
2023/10/08 11:49:47;;;;;;;5.67;1.90;;;;;;;16.38;54.68;101957.91;5033821;28;20198;-72
2023/10/08 11:52:16;;;;;;;5.83;1.80;;;;;;;16.39;55.03;101943.41;5034604;28;20195;-72
2023/10/08 11:54:48;;;;;;;6.13;1.73;;;;;;;16.63;52.27;101965.91;5033681;28;20222;-72
2023/10/08 11:57:21;;;;;;;5.03;1.90;;;;;;;16.79;53.99;101966.88;5033726;28;20198;-72
2023/10/08 11:59:54;;;;;;;5.07;1.83;;;;;;;16.98;55.05;101982.75;5033716;28;20213;-72
2023/10/08 12:02:26;;;;;;;4.20;1.50;;;;;;;17.13;53.85;101987.28;5033755;28;20194;-72
2023/10/08 12:04:57;;;;;;;6.93;2.30;;;;;;;17.14;52.61;101978.16;5033535;28;20230;-72
2023/10/08 12:07:27;;;;;;;5.97;1.90;;;;;;;17.25;53.71;101985.06;5033481;28;20641;-72
2023/10/08 12:09:56;;;;;;;4.20;1.80;;;;;;;17.10;53.95;101986.78;5033511;28;20245;-72
2023/10/08 12:12:27;;;;;;;4.10;1.50;;;;;;;17.00;52.02;101980.72;5033238;28;20796;-72
2023/10/08 12:14:55;;;;;;;4.10;2.00;;;;;;;16.86;55.55;101984.13;5033424;28;20231;-72
2023/10/08 12:17:37;;;;;;;6.07;2.10;;;;;;;16.98;52.43;101978.19;5033097;28;20206;-72